createdAt,value
2018-10-02T00:00:52.475Z,15.13
2018-10-02T00:03:23.036Z,15.04
2018-10-02T00:05:53.600Z,15.05
2018-10-02T00:08:24.245Z,15.02
2018-10-02T00:13:02.230Z,14.97
2018-10-02T00:15:32.794Z,15.04
2018-10-02T00:18:03.375Z,15.02
2018-10-02T00:20:33.974Z,14.89
2018-10-02T00:23:04.584Z,14.89
2018-10-02T00:25:35.248Z,14.90
2018-10-02T00:28:05.826Z,14.91
2018-10-02T00:30:36.315Z,14.94
2018-10-02T00:33:06.848Z,14.87
2018-10-02T00:35:37.403Z,14.88
2018-10-02T00:38:07.988Z,14.88
2018-10-02T00:40:38.570Z,14.76
2018-10-02T00:43:09.299Z,14.70
2018-10-02T00:45:39.828Z,14.59
2018-10-02T00:48:10.406Z,14.59
2018-10-02T00:50:40.990Z,14.60
2018-10-02T00:53:11.644Z,14.63
2018-10-02T00:55:42.145Z,14.58
2018-10-02T00:58:12.723Z,14.64
2018-10-02T01:00:43.149Z,14.55
2018-10-02T01:03:13.834Z,14.53
2018-10-02T01:05:44.402Z,14.57
2018-10-02T01:08:14.939Z,14.57
2018-10-02T01:10:45.432Z,14.44
2018-10-02T01:13:16.026Z,14.42
2018-10-02T01:15:47.615Z,14.40
2018-10-02T01:18:18.250Z,14.35
2018-10-02T01:20:48.850Z,14.24
2018-10-02T01:23:19.711Z,14.23
2018-10-02T01:25:50.557Z,14.14
2018-10-02T01:28:21.062Z,14.05
2018-10-02T01:30:51.725Z,14.08
2018-10-02T01:33:22.213Z,13.92
2018-10-02T01:35:52.780Z,13.89
2018-10-02T01:38:23.344Z,13.74
2018-10-02T01:40:53.996Z,13.62
2018-10-02T01:43:24.728Z,13.58
2018-10-02T01:45:55.421Z,13.72
2018-10-02T01:48:26.071Z,13.74
2018-10-02T01:50:56.604Z,13.79
2018-10-02T01:53:27.202Z,13.83
2018-10-02T01:55:57.789Z,13.74
2018-10-02T01:58:28.423Z,13.81
2018-10-02T02:00:58.932Z,13.77
2018-10-02T02:03:29.709Z,13.75
2018-10-02T02:06:00.312Z,13.72
2018-10-02T02:08:30.810Z,13.74
2018-10-02T02:11:01.244Z,13.69
2018-10-02T02:13:31.920Z,13.76
2018-10-02T02:16:02.466Z,13.81
2018-10-02T02:18:33.769Z,13.73
2018-10-02T02:21:04.377Z,13.62
2018-10-02T02:23:34.960Z,13.63
2018-10-02T02:26:05.602Z,13.65
2018-10-02T02:28:36.103Z,13.60
2018-10-02T02:31:06.699Z,13.61
2018-10-02T02:33:37.226Z,13.67
2018-10-02T02:36:07.901Z,13.71
2018-10-02T02:38:38.377Z,13.69
2018-10-02T02:41:08.969Z,13.63
2018-10-02T02:43:39.650Z,13.61
2018-10-02T02:46:10.251Z,13.47
2018-10-02T02:48:45.734Z,13.45
2018-10-02T02:51:20.533Z,13.40
2018-10-02T02:53:51.088Z,13.49
2018-10-02T02:56:21.653Z,13.46
2018-10-02T02:58:52.208Z,13.48
2018-10-02T03:01:22.792Z,13.50
2018-10-02T03:03:53.667Z,13.51
2018-10-02T03:06:24.876Z,13.54
2018-10-02T03:08:55.790Z,13.50
2018-10-02T03:11:26.395Z,13.39
2018-10-02T03:13:57.061Z,13.35
2018-10-02T03:16:27.532Z,13.40
2018-10-02T03:18:58.061Z,13.51
2018-10-02T03:21:28.616Z,13.44
2018-10-02T03:23:59.343Z,13.38
2018-10-02T03:26:29.921Z,13.40
2018-10-02T03:29:00.488Z,13.44
2018-10-02T03:31:30.910Z,13.44
2018-10-02T03:34:01.528Z,13.53
2018-10-02T03:36:32.073Z,13.47
2018-10-02T03:39:02.757Z,13.45
2018-10-02T03:41:33.297Z,13.37
2018-10-02T03:44:04.211Z,13.41
2018-10-02T03:46:34.745Z,13.45
2018-10-02T03:49:05.287Z,13.47
2018-10-02T03:51:35.899Z,13.52
2018-10-02T03:54:06.536Z,13.55
2018-10-02T03:56:37.662Z,13.45
2018-10-02T03:59:08.359Z,13.53
2018-10-02T04:01:38.966Z,13.54
2018-10-02T04:04:10.523Z,13.49
2018-10-02T04:06:41.055Z,13.50
2018-10-02T04:09:12.325Z,13.49
2018-10-02T04:11:42.821Z,13.54
2018-10-02T04:14:13.433Z,13.59
2018-10-02T04:16:44.001Z,13.55
2018-10-02T04:19:14.445Z,13.58
2018-10-02T04:21:44.981Z,13.61
2018-10-02T04:24:15.686Z,13.63
2018-10-02T04:26:46.318Z,13.56
2018-10-02T04:29:16.810Z,13.54
2018-10-02T04:31:47.414Z,13.48
2018-10-02T04:34:18.058Z,13.52
2018-10-02T04:36:48.509Z,13.51
2018-10-02T04:39:19.011Z,13.45
2018-10-02T04:41:49.613Z,13.47
2018-10-02T04:44:20.250Z,13.46
2018-10-02T04:46:50.831Z,13.53
2018-10-02T04:49:21.404Z,13.52
2018-10-02T04:51:52.052Z,13.47
2018-10-02T04:54:22.627Z,13.42
2018-10-02T04:56:54.253Z,13.50
2018-10-02T04:59:24.822Z,13.52
2018-10-02T05:01:55.305Z,13.45
2018-10-02T05:04:25.984Z,13.40
2018-10-02T05:06:56.542Z,13.42
2018-10-02T05:09:26.990Z,13.42
2018-10-02T05:11:57.616Z,13.39
2018-10-02T05:14:28.141Z,13.43
2018-10-02T05:16:58.654Z,13.48
2018-10-02T05:19:29.146Z,13.52
2018-10-02T05:21:59.781Z,13.49
2018-10-02T05:24:30.511Z,13.44
2018-10-02T05:27:01.126Z,13.50
2018-10-02T05:29:31.589Z,13.49
2018-10-02T05:32:02.094Z,13.56
2018-10-02T05:34:32.601Z,13.59
2018-10-02T05:37:03.062Z,13.63
2018-10-02T05:39:33.657Z,13.59
2018-10-02T05:42:04.235Z,13.61
2018-10-02T05:44:34.713Z,13.63
2018-10-02T05:47:05.274Z,13.63
2018-10-02T05:49:35.893Z,13.72
2018-10-02T05:52:06.577Z,13.75
2018-10-02T05:54:38.168Z,13.79
2018-10-02T05:57:08.639Z,13.78
2018-10-02T05:59:39.197Z,13.75
2018-10-02T06:02:10.073Z,13.78
2018-10-02T06:04:40.761Z,13.75
2018-10-02T06:07:11.310Z,13.79
2018-10-02T06:09:41.877Z,13.91
2018-10-02T06:22:40.939Z,13.97
2018-10-02T06:26:05.270Z,13.99
2018-10-02T06:28:35.871Z,13.96
2018-10-02T06:36:31.149Z,13.97
2018-10-02T06:39:01.773Z,14.06
2018-10-02T06:47:48.139Z,13.91
2018-10-02T07:39:14.854Z,14.88
2018-10-02T08:11:13.046Z,15.27
2018-10-02T08:13:43.558Z,15.30
2018-10-02T08:23:09.153Z,15.52
2018-10-02T08:30:01.254Z,15.45
2018-10-02T08:32:31.667Z,15.52
2018-10-02T08:35:02.203Z,15.50
2018-10-02T08:37:32.708Z,15.41
2018-10-02T08:40:03.222Z,15.39
2018-10-02T09:19:14.454Z,15.46
2018-10-02T09:56:18.336Z,16.12
2018-10-02T10:09:40.949Z,16.43
2018-10-02T10:12:11.496Z,16.42
2018-10-02T10:14:42.092Z,16.39
2018-10-02T10:24:55.929Z,16.28
2018-10-02T10:27:26.486Z,16.42
2018-10-02T10:46:20.030Z,15.99
2018-10-02T10:48:50.565Z,16.11
2018-10-02T10:54:00.847Z,16.30
2018-10-02T11:15:45.618Z,16.36
2018-10-02T11:20:53.628Z,16.47
2018-10-02T11:23:24.098Z,16.50
2018-10-02T11:28:36.350Z,16.80
2018-10-02T11:31:07.239Z,16.88
2018-10-02T11:33:37.756Z,16.97
2018-10-02T11:36:08.437Z,17.12
2018-10-02T11:38:38.918Z,17.30
2018-10-02T11:41:09.456Z,17.48
2018-10-02T11:43:40.099Z,17.65
2018-10-02T11:46:10.900Z,17.69
2018-10-02T11:48:41.386Z,17.90
2018-10-02T11:51:11.924Z,18.12
2018-10-02T11:53:42.408Z,18.24
2018-10-02T11:56:12.933Z,18.19
2018-10-02T11:58:43.521Z,18.22
2018-10-02T12:01:14.164Z,18.17
2018-10-02T12:03:44.578Z,18.07
2018-10-02T12:06:16.385Z,18.03
2018-10-02T12:08:46.913Z,18.09
2018-10-02T12:11:17.396Z,18.20
2018-10-02T12:13:48.021Z,18.17
2018-10-02T12:16:18.432Z,18.32
2018-10-02T12:18:49.032Z,18.36
2018-10-02T12:21:19.518Z,18.48
2018-10-02T12:23:49.973Z,18.49
2018-10-02T12:26:20.583Z,18.55
2018-10-02T12:28:51.032Z,18.51
2018-10-02T12:31:21.714Z,18.51
2018-10-02T12:33:52.280Z,18.48
2018-10-02T12:36:22.742Z,18.38
2018-10-02T12:38:53.319Z,18.40
2018-10-02T12:41:23.784Z,18.43
2018-10-02T12:43:54.370Z,18.42
2018-10-02T12:46:25.449Z,18.38
2018-10-02T12:48:56.002Z,18.28
2018-10-02T12:51:26.592Z,18.31
2018-10-02T12:53:57.326Z,18.32
2018-10-02T12:56:27.790Z,18.37
2018-10-02T12:58:58.305Z,18.39
2018-10-02T13:01:28.851Z,18.42
2018-10-02T13:03:59.525Z,18.43
2018-10-02T13:06:30.408Z,18.35
2018-10-02T13:09:00.999Z,18.37
2018-10-02T13:11:31.557Z,18.36
2018-10-02T13:14:02.130Z,18.34
2018-10-02T13:16:32.675Z,18.37
2018-10-02T13:19:03.305Z,18.33
2018-10-02T13:21:33.832Z,18.35
2018-10-02T13:24:05.172Z,18.38
2018-10-02T13:26:35.767Z,18.34
2018-10-02T13:29:06.394Z,18.36
2018-10-02T13:31:36.934Z,18.35
2018-10-02T13:34:07.422Z,18.40
2018-10-02T13:36:38.551Z,18.41
2018-10-02T13:39:09.899Z,18.39
2018-10-02T13:41:40.912Z,18.39
2018-10-02T13:44:12.969Z,18.34
2018-10-02T13:46:44.234Z,18.33
2018-10-02T13:49:15.040Z,18.29
2018-10-02T13:51:45.552Z,18.31
2018-10-02T13:54:16.012Z,18.29
2018-10-02T13:56:46.604Z,18.25
2018-10-02T13:59:18.544Z,18.26
2018-10-02T14:01:49.074Z,18.21
2018-10-02T14:04:20.726Z,18.18
2018-10-02T14:06:51.244Z,18.14
2018-10-02T14:09:24.213Z,17.99
2018-10-02T14:11:54.759Z,17.93
2018-10-02T14:14:25.805Z,17.87
2018-10-02T14:24:39.125Z,17.75
2018-10-02T14:27:09.735Z,17.70
2018-10-02T14:29:40.516Z,17.61
2018-10-02T14:32:11.149Z,17.61
2018-10-02T14:34:41.763Z,17.65
2018-10-02T14:37:12.385Z,17.62
2018-10-02T14:39:43.064Z,17.72
2018-10-02T14:42:14.957Z,17.75
2018-10-02T14:44:45.636Z,17.70
2018-10-02T14:47:16.243Z,17.74
2018-10-02T14:49:46.868Z,17.72
2018-10-02T14:52:17.416Z,17.69
2018-10-02T14:54:48.031Z,17.68
2018-10-02T15:56:49.857Z,17.09
2018-10-02T15:59:20.421Z,17.03
2018-10-02T16:01:51.531Z,16.98
2018-10-02T16:04:22.113Z,16.93
2018-10-02T16:06:52.988Z,16.87
2018-10-02T16:09:24.038Z,16.82
2018-10-02T16:11:54.546Z,16.80
2018-10-02T16:14:25.892Z,16.72
2018-10-02T16:16:56.405Z,16.71
2018-10-02T16:19:27.040Z,16.67
2018-10-02T16:21:57.756Z,16.63
2018-10-02T16:24:28.361Z,16.59
2018-10-02T16:26:58.819Z,16.58
2018-10-02T16:29:30.466Z,16.56
2018-10-02T16:32:00.895Z,16.49
2018-10-02T16:34:32.442Z,16.45
2018-10-02T16:37:02.887Z,16.42
2018-10-02T16:39:33.429Z,16.35
2018-10-02T16:42:04.025Z,16.35
2018-10-02T16:44:34.463Z,16.31
2018-10-02T16:47:04.933Z,16.29
2018-10-02T16:49:35.418Z,16.26
2018-10-02T16:52:06.577Z,16.22
2018-10-02T16:54:38.909Z,16.19
2018-10-02T16:57:09.453Z,16.20
2018-10-02T16:59:39.892Z,16.15
2018-10-02T17:02:10.432Z,16.13
2018-10-02T17:04:40.911Z,16.09
2018-10-02T17:07:11.472Z,16.06
2018-10-02T17:09:41.936Z,16.06
2018-10-02T17:12:12.422Z,16.00
2018-10-02T17:14:43.146Z,15.91
2018-10-02T17:17:13.837Z,15.84
2018-10-02T17:19:44.366Z,15.86
2018-10-02T17:22:14.936Z,15.82
2018-10-02T17:24:45.356Z,15.77
2018-10-02T17:27:15.852Z,15.74
2018-10-02T17:29:46.340Z,15.71
2018-10-02T17:32:16.886Z,15.69
2018-10-02T17:34:47.552Z,15.68
2018-10-02T17:37:17.941Z,15.66
2018-10-02T17:39:48.541Z,15.67
2018-10-02T17:42:19.365Z,15.65
2018-10-02T17:44:49.828Z,15.34
2018-10-02T17:47:20.266Z,15.61
2018-10-02T17:49:50.721Z,15.61
2018-10-02T17:52:21.246Z,15.59
2018-10-02T17:54:51.793Z,15.64
2018-10-02T17:57:22.201Z,15.62
2018-10-02T17:59:52.725Z,15.65
2018-10-02T18:02:23.325Z,15.64
2018-10-02T18:04:53.757Z,15.66
2018-10-02T18:07:24.414Z,15.63
2018-10-02T18:09:55.457Z,15.64
2018-10-02T18:12:25.974Z,15.63
2018-10-02T18:14:56.622Z,15.69
2018-10-02T18:17:27.141Z,15.66
2018-10-02T18:19:57.628Z,15.57
2018-10-02T18:22:28.209Z,15.57
2018-10-02T18:24:58.741Z,15.55
2018-10-02T18:27:29.290Z,15.56
2018-10-02T18:29:59.783Z,15.56
2018-10-02T18:32:30.238Z,15.54
2018-10-02T18:35:00.796Z,15.54
2018-10-02T18:37:31.348Z,15.50
2018-10-02T18:40:01.954Z,15.46
2018-10-02T18:42:32.460Z,15.45
2018-10-02T18:45:02.897Z,15.44
2018-10-02T18:47:33.791Z,15.44
2018-10-02T18:50:05.059Z,15.48
2018-10-02T18:52:35.628Z,15.46
2018-10-02T18:55:06.397Z,15.42
2018-10-02T18:57:36.871Z,15.44
2018-10-02T19:00:07.487Z,15.40
2018-10-02T19:02:37.992Z,15.39
2018-10-02T19:05:08.526Z,15.36
2018-10-02T19:07:39.053Z,15.36
2018-10-02T19:10:09.564Z,15.35
2018-10-02T19:12:41.213Z,15.33
2018-10-02T19:15:12.061Z,15.32
2018-10-02T19:17:42.599Z,15.28
2018-10-02T19:20:17.935Z,15.30
2018-10-02T19:22:49.305Z,15.31
2018-10-02T19:25:24.813Z,15.29
2018-10-02T19:27:55.385Z,15.30
2018-10-02T19:30:30.745Z,15.32
2018-10-02T19:33:01.152Z,15.32
2018-10-02T19:35:31.521Z,15.31
2018-10-02T19:38:06.888Z,15.32
2018-10-02T19:40:37.423Z,15.31
2018-10-02T19:43:12.748Z,15.33
2018-10-02T19:45:53.030Z,15.36
2018-10-02T19:48:24.651Z,15.37
2018-10-02T19:50:59.093Z,15.40
2018-10-02T19:53:30.304Z,15.31
2018-10-02T19:56:01.033Z,15.28
2018-10-02T19:58:31.500Z,15.24
2018-10-02T20:01:03.378Z,15.23
2018-10-02T20:03:33.866Z,15.21
2018-10-02T20:06:04.396Z,15.20
2018-10-02T20:08:34.964Z,15.17
2018-10-02T20:11:05.520Z,15.15
2018-10-02T20:13:36.170Z,15.12
2018-10-02T20:16:06.816Z,15.08
2018-10-02T20:18:37.345Z,15.09
2018-10-02T20:21:07.909Z,15.13
2018-10-02T20:23:38.459Z,15.14
2018-10-02T20:26:08.948Z,15.18
2018-10-02T20:28:39.431Z,15.17
2018-10-02T20:31:09.977Z,15.15
2018-10-02T20:33:40.628Z,15.08
2018-10-02T20:36:13.128Z,15.09
2018-10-02T20:38:44.373Z,15.05
2018-10-02T20:41:14.794Z,15.02
2018-10-02T20:43:45.192Z,14.98
2018-10-02T20:46:15.734Z,14.92
2018-10-02T20:48:46.255Z,14.87
2018-10-02T20:51:16.837Z,14.84
2018-10-02T20:53:47.235Z,14.83
2018-10-02T20:56:18.093Z,14.88
2018-10-02T20:58:48.577Z,14.89
2018-10-02T21:01:19.170Z,14.88
2018-10-02T21:03:49.657Z,14.52
2018-10-02T21:06:20.227Z,14.74
2018-10-02T21:08:50.722Z,14.74
2018-10-02T21:11:21.242Z,14.74
2018-10-02T21:13:51.635Z,14.75
2018-10-02T21:16:22.296Z,14.72
2018-10-02T21:18:52.779Z,14.70
2018-10-02T21:21:23.257Z,14.70
2018-10-02T21:26:35.788Z,14.70
2018-10-02T21:29:06.317Z,14.70
2018-10-02T21:31:37.094Z,14.67
2018-10-02T21:34:07.696Z,14.69
2018-10-02T21:36:38.178Z,14.70
2018-10-02T21:39:10.374Z,14.67
2018-10-02T21:41:40.812Z,14.74
2018-10-02T21:44:11.567Z,14.80
2018-10-02T21:46:42.081Z,14.79
2018-10-02T21:49:12.511Z,14.75
2018-10-02T21:51:42.987Z,14.70
2018-10-02T21:54:13.486Z,14.68
2018-10-02T21:56:43.906Z,14.69
2018-10-02T21:59:14.474Z,14.63
2018-10-02T22:01:44.942Z,14.66
2018-10-02T22:04:15.577Z,14.63
2018-10-02T22:06:46.039Z,14.64
2018-10-02T22:09:16.845Z,14.63
2018-10-02T22:11:47.397Z,14.59
2018-10-02T22:14:17.896Z,14.53
2018-10-02T22:16:48.437Z,14.54
2018-10-02T22:19:18.864Z,14.51
2018-10-02T22:21:49.309Z,14.45
2018-10-02T22:24:20.119Z,14.47
2018-10-02T22:26:50.588Z,14.47
2018-10-02T22:29:21.036Z,14.48
2018-10-02T22:31:51.518Z,14.48
2018-10-02T22:34:21.971Z,14.45
2018-10-02T22:36:52.405Z,14.49
2018-10-02T22:39:22.880Z,14.48
2018-10-02T22:41:53.480Z,14.46
2018-10-02T22:44:24.193Z,14.48
2018-10-02T22:46:54.665Z,14.42
2018-10-02T22:49:25.255Z,14.42
2018-10-02T22:51:55.753Z,14.44
2018-10-02T22:54:26.267Z,14.42
2018-10-02T22:56:56.797Z,14.42
2018-10-02T22:59:27.345Z,14.42
2018-10-02T23:01:57.723Z,14.40
2018-10-02T23:04:28.732Z,14.42
2018-10-02T23:06:59.196Z,14.40
2018-10-02T23:09:29.760Z,14.36
2018-10-02T23:12:00.766Z,14.35
2018-10-02T23:14:31.238Z,14.27
2018-10-02T23:17:02.662Z,14.27
2018-10-02T23:19:33.661Z,14.16
2018-10-02T23:22:04.713Z,14.16
2018-10-02T23:24:35.700Z,14.10
2018-10-02T23:27:06.161Z,14.13
2018-10-02T23:29:36.750Z,14.12
2018-10-02T23:32:07.224Z,14.18
2018-10-02T23:34:37.815Z,14.19
2018-10-02T23:37:08.343Z,14.20
2018-10-02T23:39:38.893Z,14.18
2018-10-02T23:42:11.341Z,14.15
2018-10-02T23:44:42.145Z,14.11
2018-10-02T23:47:12.800Z,14.12
2018-10-02T23:49:43.457Z,14.08
2018-10-02T23:52:14.902Z,14.10
2018-10-02T23:54:45.401Z,14.06
2018-10-02T23:57:15.948Z,14.05
2018-10-02T23:59:46.590Z,13.94
